createdAt,value
2017-07-31T00:00:33.671Z,1000.87
2017-07-31T00:01:33.705Z,1000.88
2017-07-31T00:02:33.727Z,1000.9
2017-07-31T00:03:33.755Z,1000.94
2017-07-31T00:04:33.784Z,1000.92
2017-07-31T00:05:33.811Z,1000.92
2017-07-31T00:06:33.838Z,1000.94
2017-07-31T00:07:33.866Z,1000.91
2017-07-31T00:08:33.894Z,1000.91
2017-07-31T00:09:33.923Z,1000.87
2017-07-31T00:10:33.951Z,1000.86
2017-07-31T00:11:33.977Z,1000.83
2017-07-31T00:12:34.005Z,1000.87
2017-07-31T00:13:34.033Z,1000.84
2017-07-31T00:14:34.060Z,1000.86
2017-07-31T00:15:34.088Z,1000.89
2017-07-31T00:16:34.117Z,1000.86
2017-07-31T00:17:34.142Z,1000.88
2017-07-31T00:18:34.170Z,1000.88
2017-07-31T00:19:34.204Z,1000.83
2017-07-31T00:20:34.226Z,1000.87
2017-07-31T00:21:34.252Z,1000.86
2017-07-31T00:22:34.281Z,1000.83
2017-07-31T00:23:34.308Z,1000.86
2017-07-31T00:24:34.334Z,1000.8
2017-07-31T00:25:34.363Z,1000.75
2017-07-31T00:26:34.390Z,1000.8
2017-07-31T00:27:34.420Z,1000.76
2017-07-31T00:28:34.444Z,1000.77
2017-07-31T00:29:34.473Z,1000.74
2017-07-31T00:30:34.502Z,1000.76
2017-07-31T00:31:34.527Z,1000.78
2017-07-31T00:32:34.555Z,1000.75
2017-07-31T00:33:34.581Z,1000.8
2017-07-31T00:34:34.611Z,1000.83
2017-07-31T00:35:34.640Z,1000.83
2017-07-31T00:36:34.664Z,1000.84
2017-07-31T00:37:34.690Z,1000.85
2017-07-31T00:38:34.719Z,1000.84
2017-07-31T00:39:34.746Z,1000.87
2017-07-31T00:40:34.778Z,1000.86
2017-07-31T00:41:34.803Z,1000.89
2017-07-31T00:42:34.831Z,1000.91
2017-07-31T00:43:34.855Z,1000.94
2017-07-31T00:44:34.890Z,1000.95
2017-07-31T00:45:34.912Z,1000.98
2017-07-31T00:46:34.938Z,1000.97
2017-07-31T00:47:34.967Z,1000.95
2017-07-31T00:48:34.992Z,1001.01
2017-07-31T00:49:35.020Z,1001
2017-07-31T00:50:35.048Z,1001.05
2017-07-31T00:51:35.078Z,1001.07
2017-07-31T00:52:35.102Z,1001.09
2017-07-31T00:53:35.130Z,1001.13
2017-07-31T00:54:35.157Z,1001.16
2017-07-31T00:55:35.184Z,1001.14
2017-07-31T00:56:35.216Z,1001.13
2017-07-31T00:57:35.239Z,1001.16
2017-07-31T00:58:35.266Z,1001.15
2017-07-31T00:59:35.294Z,1001.19
2017-07-31T01:00:35.319Z,1001.22
2017-07-31T01:01:35.349Z,1001.21
2017-07-31T01:02:35.374Z,1001.24
2017-07-31T01:03:35.402Z,1001.27
2017-07-31T01:04:35.431Z,1001.32
2017-07-31T01:05:35.457Z,1001.34
2017-07-31T01:06:35.483Z,1001.39
2017-07-31T01:07:35.511Z,1001.37
2017-07-31T01:08:35.538Z,1001.43
2017-07-31T01:09:35.568Z,1001.43
2017-07-31T01:10:35.594Z,1001.51
2017-07-31T01:11:35.622Z,1001.53
2017-07-31T01:12:35.646Z,1001.52
2017-07-31T01:13:35.674Z,1001.58
2017-07-31T01:14:35.703Z,1001.58
2017-07-31T01:15:35.730Z,1001.56
2017-07-31T01:16:35.755Z,1001.59
2017-07-31T01:17:35.783Z,1001.59
2017-07-31T01:18:35.812Z,1001.58
2017-07-31T01:19:35.836Z,1001.54
2017-07-31T01:20:35.867Z,1001.55
2017-07-31T01:21:35.891Z,1001.55
2017-07-31T01:22:35.918Z,1001.47
2017-07-31T01:23:35.945Z,1001.48
2017-07-31T01:24:35.972Z,1001.43
2017-07-31T01:25:35.999Z,1001.45
2017-07-31T01:26:36.025Z,1001.46
2017-07-31T01:27:36.053Z,1001.46
2017-07-31T01:28:36.080Z,1001.43
2017-07-31T01:29:36.106Z,1001.47
2017-07-31T01:30:36.137Z,1001.47
2017-07-31T01:31:36.161Z,1001.51
2017-07-31T01:32:36.189Z,1001.48
2017-07-31T01:33:36.222Z,1001.49
2017-07-31T01:34:36.243Z,1001.52
2017-07-31T01:35:36.271Z,1001.49
2017-07-31T01:36:36.297Z,1001.5
2017-07-31T01:37:36.322Z,1001.51
2017-07-31T01:38:36.351Z,1001.5
2017-07-31T01:39:36.376Z,1001.48
2017-07-31T01:40:36.406Z,1001.49
2017-07-31T01:41:36.431Z,1001.45
2017-07-31T01:42:36.459Z,1001.41
2017-07-31T01:43:36.487Z,1001.37
2017-07-31T01:44:36.510Z,1001.33
2017-07-31T01:45:36.535Z,1001.3
2017-07-31T01:46:36.565Z,1001.32
2017-07-31T01:47:36.591Z,1001.36
2017-07-31T01:48:36.618Z,1001.4
2017-07-31T01:49:36.648Z,1001.41
2017-07-31T01:50:36.674Z,1001.44
2017-07-31T01:51:36.699Z,1001.35
2017-07-31T01:52:36.726Z,1001.35
2017-07-31T01:53:36.756Z,1001.32
2017-07-31T01:54:36.856Z,1001.3
2017-07-31T01:55:36.805Z,1001.32
2017-07-31T01:56:36.833Z,1001.34
2017-07-31T01:57:36.859Z,1001.38
2017-07-31T01:58:36.889Z,1001.39
2017-07-31T01:59:36.931Z,1001.41
2017-07-31T02:00:36.943Z,1001.42
2017-07-31T02:01:36.966Z,1001.45
2017-07-31T02:02:36.994Z,1001.45
2017-07-31T02:03:37.021Z,1001.48
2017-07-31T02:04:37.047Z,1001.52
2017-07-31T02:05:37.076Z,1001.54
2017-07-31T02:06:37.168Z,1001.59
2017-07-31T02:07:37.131Z,1001.56
2017-07-31T02:08:37.153Z,1001.61
2017-07-31T02:09:37.241Z,1001.6
2017-07-31T02:10:37.207Z,1001.57
2017-07-31T02:11:37.232Z,1001.61
2017-07-31T02:12:37.263Z,1001.61
2017-07-31T02:13:37.287Z,1001.62
2017-07-31T02:14:37.313Z,1001.64
2017-07-31T02:15:37.339Z,1001.6
2017-07-31T02:16:37.366Z,1001.65
2017-07-31T02:17:37.396Z,1001.68
2017-07-31T02:18:37.419Z,1001.69
2017-07-31T02:19:37.445Z,1001.69
2017-07-31T02:20:37.473Z,1001.73
2017-07-31T02:21:37.500Z,1001.73
2017-07-31T02:22:37.528Z,1001.74
2017-07-31T02:23:37.553Z,1001.76
2017-07-31T02:24:37.580Z,1001.85
2017-07-31T02:25:37.607Z,1001.91
2017-07-31T02:26:37.633Z,1001.97
2017-07-31T02:27:37.660Z,1002.01
2017-07-31T02:28:37.684Z,1001.94
2017-07-31T02:29:37.713Z,1001.95
2017-07-31T02:30:37.740Z,1001.92
2017-07-31T02:31:37.765Z,1001.98
2017-07-31T02:32:37.793Z,1002.03
2017-07-31T02:33:37.820Z,1002.01
2017-07-31T02:34:37.849Z,1002
2017-07-31T02:35:37.871Z,1002
2017-07-31T02:36:37.904Z,1002.01
2017-07-31T02:37:37.925Z,1002.06
2017-07-31T02:38:38.017Z,1002.08
2017-07-31T02:39:37.979Z,1002.12
2017-07-31T02:40:38.003Z,1002.18
2017-07-31T02:41:38.031Z,1002.19
2017-07-31T02:42:38.058Z,1002.22
2017-07-31T02:43:38.086Z,1002.21
2017-07-31T02:44:38.116Z,1002.19
2017-07-31T02:45:38.137Z,1002.19
2017-07-31T02:46:38.163Z,1002.21
2017-07-31T02:47:38.190Z,1002.21
2017-07-31T02:48:38.217Z,1002.22
2017-07-31T02:49:38.250Z,1002.23
2017-07-31T02:50:38.269Z,1002.21
2017-07-31T02:51:38.297Z,1002.23
2017-07-31T02:52:38.324Z,1002.22
2017-07-31T02:53:38.351Z,1002.23
2017-07-31T02:54:38.377Z,1002.26
2017-07-31T02:55:38.402Z,1002.3
2017-07-31T02:56:38.431Z,1002.32
2017-07-31T02:57:38.456Z,1002.39
2017-07-31T02:58:38.483Z,1002.41
2017-07-31T02:59:38.507Z,1002.45
2017-07-31T03:00:38.536Z,1002.46
2017-07-31T03:01:38.562Z,1002.43
2017-07-31T03:02:38.589Z,1002.41
2017-07-31T03:03:38.615Z,1002.4
2017-07-31T03:04:38.641Z,1002.43
2017-07-31T03:05:38.667Z,1002.41
2017-07-31T03:06:38.695Z,1002.4
2017-07-31T03:07:38.719Z,1002.42
2017-07-31T03:08:38.747Z,1002.37
2017-07-31T03:09:38.772Z,1002.39
2017-07-31T03:10:38.798Z,1002.37
2017-07-31T03:11:38.830Z,1002.36
2017-07-31T03:12:38.851Z,1002.32
2017-07-31T03:13:38.877Z,1002.35
2017-07-31T03:14:38.905Z,1002.35
2017-07-31T03:15:38.931Z,1002.32
2017-07-31T03:16:38.957Z,1002.35
2017-07-31T03:17:38.983Z,1002.37
2017-07-31T03:18:39.011Z,1002.31
2017-07-31T03:19:39.035Z,1002.29
2017-07-31T03:20:39.062Z,1002.32
2017-07-31T03:21:39.090Z,1002.3
2017-07-31T03:22:39.116Z,1002.26
2017-07-31T03:23:39.140Z,1002.19
2017-07-31T03:24:39.370Z,1002.18
2017-07-31T03:25:39.398Z,1002.12
2017-07-31T03:26:39.223Z,1002.13
2017-07-31T03:27:39.244Z,1002.11
2017-07-31T03:28:39.273Z,1002.07
2017-07-31T03:29:39.297Z,1002.05
2017-07-31T03:30:39.324Z,1002.07
2017-07-31T03:31:39.357Z,1002.12
2017-07-31T03:32:39.375Z,1002.16
2017-07-31T03:33:39.402Z,1002.13
2017-07-31T03:34:39.432Z,1002.16
2017-07-31T03:35:39.470Z,1002.13
2017-07-31T03:36:39.486Z,1002.17
2017-07-31T03:37:39.510Z,1002.19
2017-07-31T03:38:39.536Z,1002.15
2017-07-31T03:39:39.560Z,1002.13
2017-07-31T03:40:39.585Z,1002.17
2017-07-31T03:41:39.611Z,1002.14
2017-07-31T03:42:39.844Z,1002.16
2017-07-31T03:43:39.663Z,1002.1
2017-07-31T03:44:39.693Z,1002.08
2017-07-31T03:45:39.716Z,1002.01
2017-07-31T03:46:39.744Z,1002.05
2017-07-31T03:47:39.769Z,1002.01
2017-07-31T03:48:39.795Z,1002.01
2017-07-31T03:49:39.824Z,1002.04
2017-07-31T03:50:39.847Z,1002.07
2017-07-31T03:51:39.873Z,1002.05
2017-07-31T03:52:40.106Z,1002.11
2017-07-31T03:53:39.932Z,1002.09
2017-07-31T03:54:39.954Z,1002.12
2017-07-31T03:55:39.977Z,1002.14
2017-07-31T03:56:40.004Z,1002.07
2017-07-31T03:57:40.029Z,1002.11
2017-07-31T03:58:40.055Z,1002.07
2017-07-31T03:59:40.082Z,1002.07
2017-07-31T04:00:40.108Z,1002.13
2017-07-31T04:01:40.135Z,1002.11
2017-07-31T04:02:40.158Z,1002.1
2017-07-31T04:03:40.187Z,1002.13
2017-07-31T04:04:40.211Z,1002.12
2017-07-31T04:05:40.333Z,1002.1
2017-07-31T04:06:40.335Z,1002.12
2017-07-31T04:07:40.289Z,1002.12
2017-07-31T04:08:40.316Z,1002.08
2017-07-31T04:09:40.342Z,1002.11
2017-07-31T04:10:40.365Z,1002.08
2017-07-31T04:11:40.393Z,1002.06
2017-07-31T04:12:40.420Z,1002.07
2017-07-31T04:13:40.446Z,1002.07
2017-07-31T04:14:40.469Z,1002.03
2017-07-31T04:15:40.496Z,1002.04
2017-07-31T04:16:40.532Z,1002.02
2017-07-31T04:17:40.550Z,1002.01
2017-07-31T04:18:40.575Z,1002.02
2017-07-31T04:19:40.609Z,1001.94
2017-07-31T04:20:40.627Z,1001.95
2017-07-31T04:21:40.654Z,1001.89
2017-07-31T04:22:40.685Z,1001.91
2017-07-31T04:23:40.713Z,1001.91
2017-07-31T04:24:40.731Z,1001.92
2017-07-31T04:25:40.970Z,1002.01
2017-07-31T04:26:40.788Z,1002.08
2017-07-31T04:27:40.810Z,1002.05
2017-07-31T04:28:40.835Z,1002.08
2017-07-31T04:29:40.862Z,1002.07
2017-07-31T04:30:40.895Z,1002.1
2017-07-31T04:31:40.914Z,1002.12
2017-07-31T04:32:41.145Z,1002.09
2017-07-31T04:33:40.963Z,1002.12
2017-07-31T04:34:40.995Z,1002.09
2017-07-31T04:35:41.017Z,1002.07
2017-07-31T04:36:41.044Z,1002.08
2017-07-31T04:37:41.069Z,1002.13
2017-07-31T04:38:41.095Z,1002.1
2017-07-31T04:39:41.118Z,1002.08
2017-07-31T04:40:41.146Z,1002.05
2017-07-31T04:41:41.175Z,1002.01
2017-07-31T04:42:41.197Z,1001.98
2017-07-31T04:43:41.223Z,1001.92
2017-07-31T04:44:41.250Z,1001.95
2017-07-31T04:45:41.273Z,1001.94
2017-07-31T04:46:41.301Z,1001.97
2017-07-31T04:47:41.325Z,1001.99
2017-07-31T04:48:41.353Z,1001.97
2017-07-31T04:49:41.376Z,1001.96
2017-07-31T04:50:41.405Z,1001.97
2017-07-31T04:51:41.428Z,1002.05
2017-07-31T04:52:41.455Z,1002.08
2017-07-31T04:53:41.482Z,1002.13
2017-07-31T04:54:41.506Z,1002.14
2017-07-31T04:55:41.532Z,1002.17
2017-07-31T04:56:41.560Z,1002.12
2017-07-31T04:57:41.585Z,1002.15
2017-07-31T04:58:41.608Z,1002.17
2017-07-31T04:59:41.636Z,1002.09
2017-07-31T05:00:41.661Z,1002.15
2017-07-31T05:01:41.689Z,1002.15
2017-07-31T05:02:41.716Z,1002.16
2017-07-31T05:03:41.739Z,1002.14
2017-07-31T05:04:41.767Z,1002.19
2017-07-31T05:05:41.789Z,1002.18
2017-07-31T05:06:41.815Z,1002.21
2017-07-31T05:07:41.843Z,1002.16
2017-07-31T05:08:41.867Z,1002.18
2017-07-31T05:09:41.892Z,1002.16
2017-07-31T05:10:41.928Z,1002.16
2017-07-31T05:11:41.945Z,1002.15
2017-07-31T05:12:41.972Z,1002.12
2017-07-31T05:13:41.995Z,1002.16
2017-07-31T05:14:42.020Z,1002.15
2017-07-31T05:15:42.047Z,1002.16
2017-07-31T05:16:42.077Z,1002.16
2017-07-31T05:17:42.100Z,1002.24
2017-07-31T05:18:42.196Z,1002.28
2017-07-31T05:19:42.158Z,1002.3
2017-07-31T05:20:42.176Z,1002.32
2017-07-31T05:21:42.201Z,1002.35
2017-07-31T05:22:42.233Z,1002.34
2017-07-31T05:23:42.250Z,1002.31
2017-07-31T05:24:42.276Z,1002.3
2017-07-31T05:25:42.302Z,1002.28
2017-07-31T05:26:42.328Z,1002.29
2017-07-31T05:27:42.355Z,1002.34
2017-07-31T05:28:42.379Z,1002.33
2017-07-31T05:29:42.405Z,1002.38
2017-07-31T05:30:42.432Z,1002.39
2017-07-31T05:31:42.457Z,1002.39
2017-07-31T05:32:42.483Z,1002.39
2017-07-31T05:33:42.508Z,1002.43
2017-07-31T05:34:42.533Z,1002.42
2017-07-31T05:35:42.559Z,1002.44
2017-07-31T05:36:42.585Z,1002.42
2017-07-31T05:37:42.617Z,1002.4
2017-07-31T05:38:42.638Z,1002.38
2017-07-31T05:39:42.663Z,1002.42
2017-07-31T05:40:42.691Z,1002.44
2017-07-31T05:41:42.714Z,1002.43
2017-07-31T05:42:42.740Z,1002.44
2017-07-31T05:43:42.765Z,1002.45
2017-07-31T05:44:42.789Z,1002.45
2017-07-31T05:45:42.816Z,1002.43
2017-07-31T05:46:42.840Z,1002.43
2017-07-31T05:47:42.868Z,1002.46
2017-07-31T05:48:42.893Z,1002.5
2017-07-31T05:49:42.918Z,1002.52
2017-07-31T05:50:42.944Z,1002.52
2017-07-31T05:51:42.969Z,1002.53
2017-07-31T05:52:42.996Z,1002.51
2017-07-31T05:53:43.025Z,1002.53
2017-07-31T05:54:43.046Z,1002.49
2017-07-31T05:55:43.077Z,1002.5
2017-07-31T05:56:43.096Z,1002.52
2017-07-31T05:57:43.124Z,1002.51
2017-07-31T05:58:43.147Z,1002.51
2017-07-31T05:59:43.176Z,1002.56
2017-07-31T06:00:43.200Z,1002.54
2017-07-31T06:01:43.227Z,1002.57
2017-07-31T06:09:20.318Z,1002.64
2017-07-31T06:10:20.344Z,1002.61
2017-07-31T06:11:20.371Z,1002.6
2017-07-31T06:12:20.396Z,1002.58
2017-07-31T06:13:20.420Z,1002.61
2017-07-31T06:14:20.446Z,1002.63
2017-07-31T06:15:20.470Z,1002.66
2017-07-31T06:16:20.498Z,1002.72
2017-07-31T06:17:20.729Z,1002.67
2017-07-31T06:18:20.568Z,1002.67
2017-07-31T06:19:20.578Z,1002.71
2017-07-31T06:20:20.600Z,1002.68
2017-07-31T06:21:20.628Z,1002.7
2017-07-31T06:22:20.650Z,1002.7
2017-07-31T06:23:20.677Z,1002.71
2017-07-31T06:24:20.702Z,1002.73
2017-07-31T06:25:20.876Z,1002.72
2017-07-31T06:26:20.754Z,1002.74
2017-07-31T06:27:20.780Z,1002.75
2017-07-31T06:28:20.806Z,1002.72
2017-07-31T06:29:20.832Z,1002.76
2017-07-31T06:30:20.856Z,1002.72
2017-07-31T06:31:20.882Z,1002.76
2017-07-31T06:32:20.905Z,1002.74
2017-07-31T06:33:20.930Z,1002.78
2017-07-31T06:34:20.957Z,1002.81
2017-07-31T06:35:20.985Z,1002.8
2017-07-31T06:36:21.011Z,1002.88
2017-07-31T06:37:21.035Z,1002.82
2017-07-31T06:38:21.064Z,1002.81
2017-07-31T06:39:21.086Z,1002.82
2017-07-31T06:40:21.111Z,1002.86
2017-07-31T06:41:21.136Z,1002.88
2017-07-31T06:42:21.164Z,1002.9
2017-07-31T06:43:21.188Z,1002.96
2017-07-31T06:44:21.214Z,1002.88
2017-07-31T06:45:21.239Z,1002.91
2017-07-31T06:46:21.265Z,1002.95
2017-07-31T06:47:21.290Z,1002.94
2017-07-31T06:48:21.317Z,1002.92
2017-07-31T06:49:21.342Z,1002.99
2017-07-31T06:50:21.369Z,1002.99
2017-07-31T06:51:21.391Z,1002.97
2017-07-31T06:52:21.421Z,1002.99
2017-07-31T06:53:21.447Z,1002.96
2017-07-31T06:54:21.473Z,1003.02
2017-07-31T06:55:21.496Z,1002.97
2017-07-31T06:56:21.520Z,1002.97
2017-07-31T06:57:21.549Z,1002.92
2017-07-31T06:58:21.574Z,1002.92
2017-07-31T06:59:21.600Z,1002.93
2017-07-31T07:00:21.625Z,1002.91
2017-07-31T07:01:21.652Z,1002.93
2017-07-31T07:02:21.675Z,1002.93
2017-07-31T07:03:21.701Z,1002.9
2017-07-31T07:04:21.728Z,1002.9
2017-07-31T07:05:21.753Z,1002.93
2017-07-31T07:06:21.779Z,1002.9
2017-07-31T07:07:21.805Z,1002.91
2017-07-31T07:08:21.830Z,1002.92
2017-07-31T07:09:21.859Z,1002.92
2017-07-31T07:10:21.883Z,1002.9
2017-07-31T07:11:21.908Z,1002.91
2017-07-31T07:12:21.935Z,1002.9
2017-07-31T07:13:21.957Z,1002.98
2017-07-31T07:14:21.985Z,1002.91
2017-07-31T07:15:22.010Z,1002.99
2017-07-31T07:16:22.039Z,1002.99
2017-07-31T07:17:22.063Z,1002.98
2017-07-31T07:18:22.087Z,1002.98
2017-07-31T07:19:22.116Z,1002.98
2017-07-31T07:20:22.138Z,1003.05
2017-07-31T07:21:22.167Z,1003.01
2017-07-31T07:22:22.192Z,1003.06
2017-07-31T07:23:22.217Z,1002.96
2017-07-31T07:24:22.241Z,1002.99
2017-07-31T07:25:22.269Z,1002.97
2017-07-31T07:26:22.343Z,1002.97
2017-07-31T07:27:22.320Z,1002.95
2017-07-31T07:28:22.348Z,1002.99
2017-07-31T07:29:22.374Z,1002.95
2017-07-31T07:30:22.401Z,1002.98
2017-07-31T07:31:22.424Z,1003.01
2017-07-31T07:32:22.451Z,1003.01
2017-07-31T07:33:22.476Z,1003.03
2017-07-31T07:34:22.502Z,1003
2017-07-31T07:35:22.530Z,1003
2017-07-31T07:36:22.555Z,1002.99
2017-07-31T07:37:22.598Z,1003
2017-07-31T07:38:22.606Z,1002.99
2017-07-31T07:39:22.632Z,1002.98
2017-07-31T07:40:22.673Z,1002.97
2017-07-31T07:41:22.690Z,1003.02
2017-07-31T07:42:22.712Z,1002.99
2017-07-31T07:43:22.737Z,1003.03
2017-07-31T07:44:22.766Z,1002.98
2017-07-31T07:45:22.792Z,1003.03
2017-07-31T07:46:22.817Z,1003.02
2017-07-31T07:47:22.842Z,1003.03
2017-07-31T07:48:22.870Z,1003.03
2017-07-31T07:49:22.894Z,1003.03
2017-07-31T07:50:22.920Z,1003.08
2017-07-31T07:51:22.954Z,1003.03
2017-07-31T07:52:22.977Z,1003.07
2017-07-31T07:53:23.001Z,1003.02
2017-07-31T07:54:23.026Z,1003.05
2017-07-31T07:55:23.052Z,1003.09
2017-07-31T07:56:23.079Z,1003.02
2017-07-31T07:57:23.104Z,1003.06
2017-07-31T07:58:23.133Z,1003.09
2017-07-31T07:59:23.159Z,1003.14
2017-07-31T08:00:23.185Z,1003.1
2017-07-31T08:01:23.209Z,1003.11
2017-07-31T08:02:23.237Z,1003.14
2017-07-31T08:03:23.267Z,1003.15
2017-07-31T08:04:23.291Z,1003.17
2017-07-31T08:05:23.317Z,1003.2
2017-07-31T08:06:23.342Z,1003.21
2017-07-31T08:07:23.376Z,1003.23
2017-07-31T08:08:23.395Z,1003.25
2017-07-31T08:09:23.421Z,1003.23
2017-07-31T08:10:23.449Z,1003.27
2017-07-31T08:11:23.474Z,1003.28
2017-07-31T08:12:23.501Z,1003.31
2017-07-31T08:13:23.530Z,1003.35
2017-07-31T08:14:23.556Z,1003.32
2017-07-31T08:15:23.583Z,1003.41
2017-07-31T08:16:23.607Z,1003.36
2017-07-31T08:17:23.634Z,1003.38
2017-07-31T08:18:23.660Z,1003.41
2017-07-31T08:19:23.688Z,1003.42
2017-07-31T08:20:23.716Z,1003.41
2017-07-31T08:21:23.742Z,1003.4
2017-07-31T08:22:23.768Z,1003.44
2017-07-31T08:23:23.795Z,1003.41
2017-07-31T08:24:23.822Z,1003.4
2017-07-31T08:25:23.848Z,1003.4
2017-07-31T08:26:23.874Z,1003.46
2017-07-31T08:27:23.905Z,1003.36
2017-07-31T08:28:23.927Z,1003.45
2017-07-31T08:29:23.955Z,1003.45
2017-07-31T08:30:23.983Z,1003.43
2017-07-31T08:31:24.009Z,1003.42
2017-07-31T08:32:24.048Z,1003.43
2017-07-31T08:33:24.065Z,1003.43
2017-07-31T08:34:24.093Z,1003.41
2017-07-31T08:35:24.118Z,1003.4
2017-07-31T08:36:24.145Z,1003.41
2017-07-31T08:37:24.169Z,1003.42
2017-07-31T08:38:24.196Z,1003.47
2017-07-31T08:39:24.225Z,1003.45
2017-07-31T08:40:24.250Z,1003.44
2017-07-31T08:41:24.278Z,1003.43
2017-07-31T08:42:24.304Z,1003.5
2017-07-31T08:43:24.336Z,1003.47
2017-07-31T08:44:24.361Z,1003.46
2017-07-31T08:45:24.389Z,1003.45
2017-07-31T08:46:24.415Z,1003.45
2017-07-31T08:47:24.442Z,1003.47
2017-07-31T08:48:24.467Z,1003.44
2017-07-31T08:49:24.496Z,1003.49
2017-07-31T08:50:24.641Z,1003.52
2017-07-31T08:51:24.552Z,1003.55
2017-07-31T08:52:24.579Z,1003.58
2017-07-31T08:53:24.605Z,1003.59
2017-07-31T08:54:24.636Z,1003.59
2017-07-31T08:55:24.660Z,1003.54
2017-07-31T08:56:24.690Z,1003.62
2017-07-31T08:57:24.783Z,1003.62
2017-07-31T08:58:24.748Z,1003.58
2017-07-31T08:59:24.773Z,1003.63
2017-07-31T09:00:24.800Z,1003.57
2017-07-31T09:01:24.829Z,1003.62
2017-07-31T09:02:24.856Z,1003.58
2017-07-31T09:03:24.881Z,1003.62
2017-07-31T09:04:24.911Z,1003.62
2017-07-31T09:05:24.997Z,1003.65
2017-07-31T09:06:24.974Z,1003.66
2017-07-31T09:07:25.202Z,1003.67
2017-07-31T09:08:25.020Z,1003.63
2017-07-31T09:09:25.051Z,1003.67
2017-07-31T09:10:25.079Z,1003.69
2017-07-31T09:11:25.105Z,1003.61
2017-07-31T09:12:25.135Z,1003.66
2017-07-31T09:13:25.168Z,1003.72
2017-07-31T09:14:25.190Z,1003.67
2017-07-31T09:15:25.217Z,1003.73
2017-07-31T09:16:25.246Z,1003.72
2017-07-31T09:17:25.274Z,1003.77
2017-07-31T09:18:25.304Z,1003.73
2017-07-31T09:19:25.333Z,1003.8
2017-07-31T09:20:25.358Z,1003.73
2017-07-31T09:21:25.388Z,1003.69
2017-07-31T09:22:25.415Z,1003.75
2017-07-31T09:23:25.446Z,1003.67
2017-07-31T09:24:25.552Z,1003.69
2017-07-31T09:25:25.551Z,1003.73
2017-07-31T09:26:25.551Z,1003.76
2017-07-31T09:27:25.669Z,1003.77
2017-07-31T09:28:25.679Z,1003.73
2017-07-31T09:29:25.733Z,1003.71
2017-07-31T09:30:25.716Z,1003.65
2017-07-31T09:31:25.712Z,1003.66
2017-07-31T09:32:25.776Z,1003.67
2017-07-31T09:33:25.824Z,1003.79
2017-07-31T09:34:25.810Z,1003.72
2017-07-31T09:35:25.819Z,1003.7
2017-07-31T09:36:25.820Z,1003.74
2017-07-31T09:37:25.845Z,1003.78
2017-07-31T09:38:25.879Z,1003.78
2017-07-31T09:39:25.905Z,1003.75
2017-07-31T09:40:25.933Z,1003.77
2017-07-31T09:41:25.964Z,1003.72
2017-07-31T09:42:25.991Z,1003.75
2017-07-31T09:43:26.020Z,1003.74
2017-07-31T09:44:26.049Z,1003.8
2017-07-31T09:45:26.079Z,1003.77
2017-07-31T09:46:26.109Z,1003.83
2017-07-31T09:47:26.136Z,1003.8
2017-07-31T09:48:26.166Z,1003.81
2017-07-31T09:49:26.199Z,1003.89
2017-07-31T09:50:26.223Z,1003.9
2017-07-31T09:51:26.254Z,1003.87
2017-07-31T09:52:26.285Z,1003.87
2017-07-31T09:53:26.339Z,1003.89
2017-07-31T09:54:26.344Z,1003.93
2017-07-31T09:55:26.374Z,1003.92
2017-07-31T09:56:26.403Z,1003.84
2017-07-31T09:57:26.433Z,1003.77
2017-07-31T09:58:26.462Z,1003.74
2017-07-31T09:59:26.493Z,1003.74
2017-07-31T10:00:26.523Z,1003.84
2017-07-31T10:01:26.554Z,1003.82
2017-07-31T10:02:26.582Z,1003.94
2017-07-31T10:03:26.613Z,1003.94
2017-07-31T10:04:26.643Z,1003.91
2017-07-31T10:05:26.673Z,1003.95
2017-07-31T10:06:26.702Z,1003.96
2017-07-31T10:07:26.734Z,1003.97
2017-07-31T10:08:26.764Z,1003.98
2017-07-31T10:09:26.803Z,1003.92
2017-07-31T10:10:26.823Z,1003.87
2017-07-31T10:11:26.854Z,1003.83
2017-07-31T10:12:26.884Z,1003.88
2017-07-31T10:13:26.917Z,1003.82
2017-07-31T10:14:26.954Z,1003.83
2017-07-31T10:15:26.977Z,1003.87
2017-07-31T10:16:27.010Z,1003.83
2017-07-31T10:17:27.040Z,1003.85
2017-07-31T10:18:27.071Z,1003.84
2017-07-31T10:19:27.101Z,1003.84
2017-07-31T10:20:27.131Z,1003.82
2017-07-31T10:21:27.162Z,1003.8
2017-07-31T10:22:27.193Z,1003.8
2017-07-31T10:23:27.222Z,1003.8
2017-07-31T10:24:27.261Z,1003.79
2017-07-31T10:25:27.287Z,1003.83
2017-07-31T10:26:27.318Z,1003.81
2017-07-31T10:27:27.347Z,1003.79
2017-07-31T10:28:27.381Z,1003.82
2017-07-31T10:29:27.409Z,1003.78
2017-07-31T10:30:27.441Z,1003.81
2017-07-31T10:31:27.472Z,1003.84
2017-07-31T10:32:27.505Z,1003.87
2017-07-31T10:33:27.535Z,1003.87
2017-07-31T10:34:27.568Z,1003.88
2017-07-31T10:35:27.600Z,1003.91
2017-07-31T10:36:27.632Z,1003.87
2017-07-31T10:37:27.662Z,1003.82
2017-07-31T10:38:27.692Z,1003.78
2017-07-31T10:39:27.724Z,1003.69
2017-07-31T10:40:27.758Z,1003.73
2017-07-31T10:41:27.786Z,1003.75
2017-07-31T10:42:27.823Z,1003.82
2017-07-31T10:43:27.852Z,1003.83
2017-07-31T10:44:27.889Z,1003.86
2017-07-31T10:45:27.916Z,1003.91
2017-07-31T10:46:27.946Z,1003.9
2017-07-31T10:47:27.982Z,1003.87
2017-07-31T10:48:28.011Z,1003.79
2017-07-31T10:49:28.044Z,1003.86
2017-07-31T10:50:28.076Z,1003.87
2017-07-31T10:51:28.108Z,1003.9
2017-07-31T10:52:28.139Z,1003.88
2017-07-31T10:53:28.169Z,1003.86
2017-07-31T10:54:28.201Z,1003.86
2017-07-31T10:55:28.233Z,1003.85
2017-07-31T10:56:28.267Z,1003.86
2017-07-31T10:57:28.301Z,1003.95
2017-07-31T10:58:28.330Z,1003.95
2017-07-31T10:59:28.361Z,1003.94
2017-07-31T11:00:28.401Z,1003.89
2017-07-31T11:01:28.426Z,1003.85
2017-07-31T11:02:28.457Z,1003.83
2017-07-31T11:03:28.489Z,1003.81
2017-07-31T11:04:28.525Z,1003.83
2017-07-31T11:05:28.552Z,1003.83
2017-07-31T11:06:28.585Z,1003.83
2017-07-31T11:07:28.617Z,1003.79
2017-07-31T11:08:28.647Z,1003.77
2017-07-31T11:09:28.680Z,1003.76
2017-07-31T11:10:28.711Z,1003.68
2017-07-31T11:11:28.745Z,1003.69
2017-07-31T11:12:28.776Z,1003.7
2017-07-31T11:13:28.807Z,1003.69
2017-07-31T11:14:28.840Z,1003.72
2017-07-31T11:15:28.873Z,1003.72
2017-07-31T11:16:28.903Z,1003.74
2017-07-31T11:17:28.938Z,1003.75
2017-07-31T11:18:28.968Z,1003.78
2017-07-31T11:19:29.002Z,1003.77
2017-07-31T11:20:29.034Z,1003.76
2017-07-31T11:21:29.066Z,1003.74
2017-07-31T11:22:29.098Z,1003.74
2017-07-31T11:23:29.129Z,1003.73
2017-07-31T11:24:29.164Z,1003.69
2017-07-31T11:25:29.195Z,1003.7
2017-07-31T11:26:29.225Z,1003.7
2017-07-31T11:27:29.265Z,1003.67
2017-07-31T11:28:29.295Z,1003.65
2017-07-31T11:29:29.324Z,1003.62
2017-07-31T11:30:29.355Z,1003.63
2017-07-31T11:31:29.389Z,1003.62
2017-07-31T11:32:29.422Z,1003.67
2017-07-31T11:33:29.453Z,1003.67
2017-07-31T11:34:29.487Z,1003.6
2017-07-31T11:35:29.539Z,1003.66
2017-07-31T11:36:29.557Z,1003.63
2017-07-31T11:37:29.583Z,1003.64
2017-07-31T11:38:29.616Z,1003.68
2017-07-31T11:39:29.648Z,1003.72
2017-07-31T11:40:29.683Z,1003.72
2017-07-31T11:41:29.716Z,1003.72
2017-07-31T11:42:29.749Z,1003.69
2017-07-31T11:43:29.779Z,1003.68
2017-07-31T11:44:29.814Z,1003.69
2017-07-31T11:45:29.847Z,1003.67
2017-07-31T11:46:29.879Z,1003.68
2017-07-31T11:47:29.912Z,1003.66
2017-07-31T11:48:29.944Z,1003.68
2017-07-31T11:49:29.979Z,1003.69
2017-07-31T11:50:30.011Z,1003.64
2017-07-31T11:51:30.045Z,1003.62
2017-07-31T11:52:30.079Z,1003.59
2017-07-31T11:53:30.113Z,1003.58
2017-07-31T11:54:30.143Z,1003.52
2017-07-31T11:55:30.179Z,1003.45
2017-07-31T11:56:30.213Z,1003.45
2017-07-31T11:57:30.246Z,1003.4
2017-07-31T11:58:30.277Z,1003.43
2017-07-31T11:59:30.313Z,1003.45
2017-07-31T12:00:30.347Z,1003.41
2017-07-31T12:01:30.379Z,1003.41
2017-07-31T12:02:30.411Z,1003.43
2017-07-31T12:03:30.447Z,1003.42
2017-07-31T12:04:30.479Z,1003.41
2017-07-31T12:05:30.513Z,1003.39
2017-07-31T12:06:30.552Z,1003.39
2017-07-31T12:07:30.582Z,1003.41
2017-07-31T12:08:30.614Z,1003.37
2017-07-31T12:09:30.650Z,1003.41
2017-07-31T12:10:30.682Z,1003.4
2017-07-31T12:11:30.717Z,1003.36
2017-07-31T12:12:30.752Z,1003.37
2017-07-31T12:13:30.786Z,1003.38
2017-07-31T12:14:30.821Z,1003.3
2017-07-31T12:15:30.852Z,1003.33